createdAt,value
2022-10-08T00:00:09.696Z,1.93
2022-10-08T00:02:38.739Z,1.30
2022-10-08T00:05:08.198Z,1.97
2022-10-08T00:07:37.728Z,1.50
2022-10-08T00:10:09.477Z,1.90
2022-10-08T00:12:37.732Z,1.80
2022-10-08T00:15:07.012Z,1.60
2022-10-08T00:17:35.798Z,1.50
2022-10-08T00:20:04.352Z,1.77
2022-10-08T00:22:32.712Z,1.47
2022-10-08T00:25:02.709Z,1.57
2022-10-08T00:27:31.068Z,1.60
2022-10-08T00:29:59.265Z,1.83
2022-10-08T00:32:27.498Z,1.70
2022-10-08T00:34:55.553Z,1.30
2022-10-08T00:37:26.324Z,1.40
2022-10-08T00:39:54.414Z,1.87
2022-10-08T00:42:24.898Z,1.50
2022-10-08T00:44:59.013Z,1.60
2022-10-08T00:47:36.423Z,2.07
2022-10-08T00:50:06.779Z,1.93
2022-10-08T00:52:37.403Z,1.50
2022-10-08T00:55:07.116Z,1.53
2022-10-08T00:57:36.802Z,1.57
2022-10-08T01:00:06.192Z,1.30
2022-10-08T01:02:34.488Z,1.83
2022-10-08T01:05:02.782Z,2.00
2022-10-08T01:07:32.595Z,1.30
2022-10-08T01:10:03.725Z,1.43
2022-10-08T01:12:41.799Z,1.23
2022-10-08T01:15:13.263Z,1.40
2022-10-08T01:17:47.901Z,1.40
2022-10-08T01:20:42.125Z,1.43
2022-10-08T01:23:35.491Z,1.80
2022-10-08T01:26:09.842Z,1.37
2022-10-08T01:28:42.157Z,1.77
2022-10-08T01:31:11.715Z,1.40
2022-10-08T01:33:42.918Z,1.47
2022-10-08T01:36:11.432Z,1.67
2022-10-08T01:38:41.307Z,1.40
2022-10-08T01:41:10.586Z,1.50
2022-10-08T01:43:42.027Z,1.60
2022-10-08T01:46:11.982Z,1.53
2022-10-08T01:48:40.472Z,1.40
2022-10-08T01:51:10.238Z,1.37
2022-10-08T01:53:39.479Z,1.80
2022-10-08T01:56:07.791Z,1.30
2022-10-08T01:58:37.770Z,1.43
2022-10-08T02:01:12.295Z,2.17
2022-10-08T02:04:00.232Z,1.60
2022-10-08T02:06:28.273Z,1.40
2022-10-08T02:08:56.161Z,1.50
2022-10-08T02:11:24.143Z,1.60
2022-10-08T02:13:52.030Z,1.60
2022-10-08T02:16:24.479Z,1.73
2022-10-08T02:18:55.332Z,1.93
2022-10-08T02:21:24.996Z,1.60
2022-10-08T02:23:55.576Z,2.00
2022-10-08T02:26:25.605Z,2.13
2022-10-08T02:28:57.049Z,1.90
2022-10-08T02:31:29.303Z,1.47
2022-10-08T02:33:59.028Z,1.67
2022-10-08T02:36:28.643Z,1.33
2022-10-08T02:38:57.632Z,1.50
2022-10-08T02:41:27.328Z,1.60
2022-10-08T02:43:55.833Z,1.90
2022-10-08T02:46:25.031Z,1.70
2022-10-08T02:48:57.402Z,1.60
2022-10-08T02:51:25.255Z,1.90
2022-10-08T02:53:53.149Z,2.27
2022-10-08T02:56:22.836Z,1.57
2022-10-08T02:58:50.735Z,1.67
2022-10-08T03:01:24.321Z,1.70
2022-10-08T03:03:55.198Z,1.83
2022-10-08T03:06:23.065Z,1.90
2022-10-08T03:08:50.958Z,1.90
2022-10-08T03:11:18.873Z,2.03
2022-10-08T03:13:48.040Z,1.50
2022-10-08T03:16:17.152Z,1.80
2022-10-08T03:18:45.040Z,1.50
2022-10-08T03:21:14.595Z,1.60
2022-10-08T03:23:42.683Z,1.50
2022-10-08T03:26:10.545Z,1.70
2022-10-08T03:28:38.496Z,1.77
2022-10-08T03:31:06.826Z,1.87
2022-10-08T03:33:34.876Z,1.57
2022-10-08T03:36:02.784Z,1.47
2022-10-08T03:38:32.645Z,1.77
2022-10-08T03:41:00.630Z,2.10
2022-10-08T03:43:32.568Z,2.00
2022-10-08T03:46:00.504Z,1.90
2022-10-08T03:48:28.485Z,1.40
2022-10-08T03:50:57.545Z,2.47
2022-10-08T03:53:25.680Z,1.73
2022-10-08T03:55:54.933Z,1.63
2022-10-08T03:58:22.784Z,2.13
2022-10-08T04:00:58.321Z,2.40
2022-10-08T04:03:26.301Z,1.77
2022-10-08T04:05:54.261Z,1.83
2022-10-08T04:08:22.192Z,2.00
2022-10-08T04:10:50.161Z,2.13
2022-10-08T04:13:19.449Z,2.23
2022-10-08T04:15:48.477Z,2.03
2022-10-08T04:18:16.372Z,2.07
2022-10-08T04:20:44.473Z,1.70
2022-10-08T04:23:12.459Z,2.30
2022-10-08T04:25:40.348Z,2.37
2022-10-08T04:28:08.302Z,2.20
2022-10-08T04:30:37.697Z,2.03
2022-10-08T04:33:05.652Z,2.30
2022-10-08T04:35:33.573Z,2.20
2022-10-08T04:38:01.459Z,2.27
2022-10-08T04:40:29.336Z,1.73
2022-10-08T04:42:57.192Z,1.80
2022-10-08T04:45:25.081Z,1.80
2022-10-08T04:47:54.355Z,2.27
2022-10-08T04:50:22.234Z,2.00
2022-10-08T04:52:50.226Z,2.00
2022-10-08T04:55:18.112Z,2.30
2022-10-08T04:57:45.970Z,1.90
2022-10-08T05:00:18.104Z,2.37
2022-10-08T05:02:47.183Z,2.10
2022-10-08T05:05:16.722Z,2.20
2022-10-08T05:07:44.589Z,1.97
2022-10-08T05:10:12.686Z,1.90
2022-10-08T05:12:40.671Z,1.90
2022-10-08T05:15:10.016Z,2.53
2022-10-08T05:17:37.949Z,1.70
2022-10-08T05:20:06.958Z,1.83
2022-10-08T05:22:36.242Z,1.93
2022-10-08T05:25:04.099Z,1.90
2022-10-08T05:27:32.283Z,2.00
2022-10-08T05:30:00.185Z,1.97
2022-10-08T05:32:28.037Z,1.87
2022-10-08T05:34:55.996Z,1.80
2022-10-08T05:37:23.900Z,1.80
2022-10-08T05:39:53.177Z,2.10
2022-10-08T05:42:21.062Z,2.30
2022-10-08T05:44:48.919Z,2.53
2022-10-08T05:47:16.862Z,1.97
2022-10-08T05:49:44.732Z,2.00
2022-10-08T05:52:12.640Z,1.80
2022-10-08T05:54:40.530Z,1.90
2022-10-08T05:57:09.956Z,2.07
2022-10-08T05:59:37.911Z,1.80
2022-10-08T06:02:05.904Z,1.80
2022-10-08T06:04:33.913Z,1.90
2022-10-08T06:07:02.146Z,1.87
2022-10-08T06:09:30.111Z,2.37
2022-10-08T06:11:58.066Z,2.07
2022-10-08T06:14:27.772Z,1.63
2022-10-08T06:16:55.726Z,1.37
2022-10-08T06:19:23.589Z,2.17
2022-10-08T06:21:51.537Z,1.50
2022-10-08T06:24:19.617Z,1.60
2022-10-08T06:26:47.545Z,1.70
2022-10-08T06:29:16.940Z,1.50
2022-10-08T06:31:46.827Z,1.77
2022-10-08T06:34:14.755Z,2.00
2022-10-08T06:36:42.937Z,1.80
2022-10-08T06:39:11.988Z,1.70
2022-10-08T06:41:39.837Z,1.50
2022-10-08T06:44:09.203Z,1.40
2022-10-08T06:46:37.145Z,2.07
2022-10-08T06:49:06.644Z,1.60
2022-10-08T06:51:34.597Z,1.70
2022-10-08T06:54:07.458Z,1.80
2022-10-08T06:56:36.724Z,1.77
2022-10-08T06:59:04.905Z,1.90
2022-10-08T07:01:34.324Z,1.70
2022-10-08T07:04:02.458Z,1.70
2022-10-08T07:06:32.211Z,1.93
2022-10-08T07:09:01.192Z,1.70
2022-10-08T07:11:33.708Z,1.20
2022-10-08T07:14:01.744Z,1.47
2022-10-08T07:16:29.715Z,1.70
2022-10-08T07:18:58.620Z,1.63
2022-10-08T07:21:26.936Z,1.70
2022-10-08T07:24:20.995Z,1.60
2022-10-08T07:26:51.697Z,1.57
2022-10-08T07:29:19.627Z,2.17
2022-10-08T07:31:47.639Z,1.80
2022-10-08T07:34:15.569Z,1.80
2022-10-08T07:36:43.568Z,1.70
2022-10-08T07:39:14.713Z,2.07
2022-10-08T07:41:43.091Z,1.60
2022-10-08T07:44:12.132Z,2.20
2022-10-08T07:46:43.651Z,1.80
2022-10-08T07:49:11.567Z,1.73
2022-10-08T07:51:39.544Z,1.80
2022-10-08T07:54:08.480Z,1.50
2022-10-08T07:56:37.781Z,1.83
2022-10-08T07:59:08.441Z,1.97
2022-10-08T08:01:36.357Z,1.70
2022-10-08T08:04:05.342Z,2.30
2022-10-08T08:06:34.886Z,1.83
2022-10-08T08:09:02.804Z,1.50
2022-10-08T08:11:30.778Z,2.10
2022-10-08T08:14:00.139Z,2.10
2022-10-08T08:16:29.355Z,1.83
2022-10-08T08:18:58.262Z,1.73
2022-10-08T08:21:28.275Z,2.77
2022-10-08T08:23:57.402Z,1.90
2022-10-08T08:26:26.574Z,2.10
2022-10-08T08:28:55.475Z,1.97
2022-10-08T08:31:26.025Z,1.97
2022-10-08T08:33:55.190Z,2.37
2022-10-08T08:36:25.407Z,1.77
2022-10-08T08:38:53.333Z,2.20
2022-10-08T08:41:34.726Z,2.07
2022-10-08T08:44:03.801Z,1.97
2022-10-08T08:46:33.856Z,1.83
2022-10-08T08:49:03.719Z,2.03
2022-10-08T08:51:32.534Z,2.10
2022-10-08T08:54:00.635Z,2.20
2022-10-08T08:56:29.584Z,1.77
2022-10-08T08:59:06.941Z,1.90
2022-10-08T09:01:37.865Z,1.70
2022-10-08T09:04:07.830Z,2.13
2022-10-08T09:06:35.801Z,2.33
2022-10-08T09:09:06.997Z,2.20
2022-10-08T09:11:37.768Z,1.80
2022-10-08T09:14:14.710Z,1.83
2022-10-08T09:16:44.193Z,2.20
2022-10-08T09:19:12.270Z,2.43
2022-10-08T09:21:40.241Z,1.80
2022-10-08T09:24:08.152Z,2.50
2022-10-08T09:26:36.493Z,1.57
2022-10-08T09:29:04.835Z,1.83
2022-10-08T09:31:33.829Z,1.43
2022-10-08T09:34:06.472Z,2.03
2022-10-08T09:36:36.417Z,2.10
2022-10-08T09:39:06.065Z,1.90
2022-10-08T09:41:34.208Z,1.80
2022-10-08T09:44:14.004Z,1.97
2022-10-08T09:46:41.977Z,2.03
2022-10-08T09:49:32.170Z,2.00
2022-10-08T09:52:03.419Z,1.57
2022-10-08T09:54:32.347Z,2.03
2022-10-08T09:57:01.014Z,2.10
2022-10-08T10:02:40.129Z,1.70
2022-10-08T10:05:20.674Z,2.20
2022-10-08T10:07:48.546Z,1.93
2022-10-08T10:10:18.820Z,2.00
2022-10-08T10:12:49.628Z,2.00
2022-10-08T10:15:19.949Z,2.07
2022-10-08T10:17:51.196Z,1.90
2022-10-08T10:20:26.447Z,1.83
2022-10-08T10:22:57.278Z,1.63
2022-10-08T10:25:30.878Z,1.90
2022-10-08T10:28:00.768Z,1.83
2022-10-08T10:30:29.751Z,2.00
2022-10-08T10:32:59.589Z,1.73
2022-10-08T10:35:29.597Z,2.17
2022-10-08T10:38:00.836Z,1.60
2022-10-08T10:40:33.199Z,2.00
2022-10-08T10:43:45.654Z,1.60
2022-10-08T10:46:25.538Z,1.80
2022-10-08T10:48:53.633Z,1.97
2022-10-08T10:51:41.299Z,1.80
2022-10-08T10:54:37.699Z,4.43
2022-10-08T10:57:36.362Z,1.90
2022-10-08T11:00:06.294Z,2.90
2022-10-08T11:02:36.588Z,1.97
2022-10-08T11:05:07.977Z,1.90
2022-10-08T11:08:02.398Z,1.97
2022-10-08T11:10:37.691Z,1.63
2022-10-08T11:13:12.073Z,2.23
2022-10-08T11:15:42.585Z,2.00
2022-10-08T11:18:21.937Z,1.87
2022-10-08T11:21:01.750Z,1.67
2022-10-08T11:23:39.524Z,1.83
2022-10-08T11:26:21.838Z,1.70
2022-10-08T11:28:53.040Z,1.70
2022-10-08T11:31:26.090Z,1.85
2022-10-08T11:33:55.062Z,1.55
2022-10-08T11:36:30.512Z,1.90
2022-10-08T11:39:07.787Z,1.67
2022-10-08T11:41:39.171Z,1.60
2022-10-08T11:44:08.845Z,1.60
2022-10-08T11:46:36.959Z,1.95
2022-10-08T11:49:05.299Z,1.70
2022-10-08T11:51:40.239Z,1.40
2022-10-08T11:54:15.477Z,1.52
2022-10-08T11:56:45.021Z,1.70
2022-10-08T11:59:37.311Z,1.67
2022-10-08T12:02:21.653Z,1.83
2022-10-08T12:04:50.105Z,1.48
2022-10-08T12:07:24.697Z,2.00
2022-10-08T12:10:10.766Z,1.98
2022-10-08T12:13:03.299Z,2.08
2022-10-08T12:15:50.862Z,1.90
2022-10-08T12:19:10.561Z,1.98
2022-10-08T12:21:56.421Z,1.80
2022-10-08T12:24:57.762Z,1.75
2022-10-08T12:27:34.654Z,1.60
2022-10-08T12:30:04.275Z,1.55
2022-10-08T12:32:32.872Z,1.63
2022-10-08T12:35:01.718Z,1.73
2022-10-08T12:37:45.865Z,1.63
2022-10-08T12:40:21.161Z,1.50
2022-10-08T12:42:50.736Z,1.40
2022-10-08T12:45:21.953Z,1.55
2022-10-08T12:47:51.288Z,1.48
2022-10-08T12:50:40.217Z,2.13
2022-10-08T12:53:08.628Z,1.80
2022-10-08T12:55:39.165Z,1.77
2022-10-08T12:58:08.646Z,1.52
2022-10-08T13:00:37.186Z,1.58
2022-10-08T13:03:05.975Z,1.08
2022-10-08T13:05:34.866Z,1.88
2022-10-08T13:08:30.858Z,1.40
2022-10-08T13:10:59.288Z,1.67
2022-10-08T13:13:36.691Z,1.30
2022-10-08T13:16:06.005Z,1.45
2022-10-08T13:18:34.392Z,1.77
2022-10-08T13:21:03.160Z,1.75
2022-10-08T13:23:35.251Z,1.60
2022-10-08T13:26:03.184Z,1.38
2022-10-08T13:28:59.294Z,1.60
2022-10-08T13:31:25.353Z,1.30
2022-10-08T13:33:53.272Z,1.50
2022-10-08T13:36:22.753Z,1.65
2022-10-08T13:38:53.678Z,1.75
2022-10-08T13:41:23.807Z,1.80
2022-10-08T13:43:51.930Z,1.70
2022-10-08T13:46:19.861Z,1.20
2022-10-08T13:48:49.198Z,1.80
2022-10-08T13:51:17.084Z,1.48
2022-10-08T13:53:45.773Z,1.40
2022-10-08T13:56:13.846Z,1.73
2022-10-08T13:58:41.713Z,1.50
2022-10-08T14:01:09.680Z,1.55
2022-10-08T14:03:37.740Z,1.10
2022-10-08T14:06:07.500Z,1.77
2022-10-08T14:08:36.080Z,1.65
2022-10-08T14:11:04.110Z,1.70
2022-10-08T14:13:32.026Z,1.50
2022-10-08T14:15:59.926Z,1.48
2022-10-08T14:18:39.195Z,1.27
2022-10-08T14:21:08.670Z,1.80
2022-10-08T14:23:36.618Z,1.70
2022-10-08T14:26:04.580Z,2.00
2022-10-08T14:28:33.277Z,1.50
2022-10-08T14:31:01.450Z,1.38
2022-10-08T14:33:29.462Z,1.92
2022-10-08T14:35:57.372Z,1.95
2022-10-08T14:38:26.634Z,1.98
2022-10-08T14:40:54.612Z,1.70
2022-10-08T14:43:25.650Z,1.85
2022-10-08T14:45:55.488Z,1.80
2022-10-08T14:48:23.573Z,1.65
2022-10-08T14:50:51.453Z,1.58
2022-10-08T14:53:19.368Z,1.88
2022-10-08T14:56:10.962Z,1.67
2022-10-08T14:58:37.381Z,1.70
2022-10-08T15:01:05.363Z,1.70
2022-10-08T15:03:33.479Z,1.48
2022-10-08T15:06:01.471Z,1.50
2022-10-08T15:08:29.441Z,1.80
2022-10-08T15:10:58.738Z,1.88
2022-10-08T15:13:26.573Z,1.60
2022-10-08T15:15:54.837Z,1.50
2022-10-08T15:18:22.991Z,1.63
2022-10-08T15:20:55.590Z,1.67
2022-10-08T15:23:23.821Z,1.65
2022-10-08T15:26:25.212Z,1.65
2022-10-08T15:29:06.250Z,2.10
2022-10-08T15:31:34.152Z,1.75
2022-10-08T15:34:02.141Z,1.70
2022-10-08T15:36:30.877Z,1.55
2022-10-08T15:38:59.470Z,1.60
2022-10-08T15:41:29.757Z,1.65
2022-10-08T15:43:57.749Z,1.80
2022-10-08T15:46:28.971Z,1.70
2022-10-08T15:48:57.580Z,1.85
2022-10-08T15:51:26.299Z,1.77
2022-10-08T15:53:54.389Z,2.17
2022-10-08T15:56:22.654Z,1.67
2022-10-08T15:58:52.137Z,2.38
2022-10-08T16:01:21.211Z,1.77
2022-10-08T16:03:50.229Z,1.75
2022-10-08T16:06:19.041Z,1.80
2022-10-08T16:08:46.971Z,1.73
2022-10-08T16:11:15.437Z,2.00
2022-10-08T16:13:43.720Z,1.57
2022-10-08T16:16:15.346Z,1.63
2022-10-08T16:18:43.587Z,1.63
2022-10-08T16:21:11.737Z,1.75
2022-10-08T16:23:39.850Z,1.50
2022-10-08T16:26:08.987Z,1.83
2022-10-08T16:28:38.125Z,1.90
2022-10-08T16:31:08.808Z,2.08
2022-10-08T16:33:38.126Z,2.10
2022-10-08T16:36:07.327Z,2.70
2022-10-08T16:38:35.564Z,2.27
2022-10-08T16:41:13.970Z,2.10
2022-10-08T16:43:42.039Z,1.80
2022-10-08T16:46:17.062Z,2.20
2022-10-08T16:48:46.486Z,1.63
2022-10-08T16:51:14.375Z,1.80
2022-10-08T16:53:42.301Z,1.93
2022-10-08T16:56:10.619Z,1.80
2022-10-08T16:58:38.554Z,1.80
2022-10-08T17:01:08.376Z,2.50
2022-10-08T17:03:36.514Z,2.67
2022-10-08T17:06:06.680Z,3.17
2022-10-08T17:08:34.557Z,2.87
2022-10-08T17:11:05.312Z,2.60
2022-10-08T17:13:33.282Z,2.67
2022-10-08T17:16:01.689Z,2.47
2022-10-08T17:18:29.856Z,2.27
2022-10-08T17:20:58.196Z,2.10
2022-10-08T17:23:27.986Z,1.90
2022-10-08T17:25:56.881Z,2.40
2022-10-08T17:28:28.255Z,1.90
2022-10-08T17:30:58.107Z,2.60
2022-10-08T17:33:26.073Z,2.43
2022-10-08T17:36:00.906Z,1.77
2022-10-08T17:38:30.367Z,2.27
2022-10-08T17:40:58.342Z,1.80
2022-10-08T17:43:26.406Z,1.60
2022-10-08T17:45:54.401Z,1.90
2022-10-08T17:48:22.421Z,2.23
2022-10-08T17:50:50.281Z,4.33
2022-10-08T17:53:18.142Z,2.20
2022-10-08T17:55:47.565Z,2.37
2022-10-08T17:58:15.468Z,1.90
2022-10-08T18:00:43.351Z,1.80
2022-10-08T18:03:11.461Z,1.97
2022-10-08T18:05:39.480Z,1.77
2022-10-08T18:08:07.496Z,2.30
2022-10-08T18:10:38.154Z,1.67
2022-10-08T18:13:07.461Z,1.80
2022-10-08T18:15:37.672Z,2.20
2022-10-08T18:18:05.615Z,2.40
2022-10-08T18:20:33.512Z,3.07
2022-10-08T18:23:01.453Z,4.53
2022-10-08T18:25:29.452Z,7.73
2022-10-08T18:27:57.429Z,8.60
2022-10-08T18:30:27.071Z,4.87
2022-10-08T18:32:56.936Z,4.27
2022-10-08T18:35:25.645Z,3.30
2022-10-08T18:37:53.717Z,4.00
2022-10-08T18:40:21.695Z,3.57
2022-10-08T18:42:49.824Z,3.27
2022-10-08T18:45:18.111Z,3.13
2022-10-08T18:47:47.384Z,2.70
2022-10-08T18:50:15.758Z,3.10
2022-10-08T18:52:43.787Z,3.40
2022-10-08T18:55:11.665Z,3.03
2022-10-08T18:57:39.593Z,3.87
2022-10-08T19:00:08.695Z,4.47
2022-10-08T19:02:36.909Z,5.00
2022-10-08T19:05:07.414Z,4.83
2022-10-08T19:07:35.381Z,5.77
2022-10-08T19:10:03.374Z,5.50
2022-10-08T19:12:31.400Z,4.67
2022-10-08T19:14:59.478Z,2.97
2022-10-08T19:17:27.368Z,3.37
2022-10-08T19:19:55.272Z,3.37
2022-10-08T19:22:24.578Z,4.10
2022-10-08T19:24:52.779Z,3.43
2022-10-08T19:27:20.761Z,3.53
2022-10-08T19:29:48.680Z,3.67
2022-10-08T19:32:16.665Z,4.87
2022-10-08T19:34:44.496Z,3.90
2022-10-08T19:37:12.377Z,3.43
2022-10-08T19:39:44.161Z,4.40
2022-10-08T19:42:12.345Z,4.10
2022-10-08T19:44:40.272Z,4.03
2022-10-08T19:47:08.292Z,4.80
2022-10-08T19:49:36.186Z,7.93
2022-10-08T19:52:04.033Z,7.23
2022-10-08T19:54:31.949Z,5.90
2022-10-08T19:57:01.204Z,5.80
2022-10-08T19:59:29.096Z,5.67
2022-10-08T20:01:57.045Z,5.00
2022-10-08T20:04:24.975Z,6.13
2022-10-08T20:06:52.912Z,6.03
2022-10-08T20:09:21.206Z,6.03
2022-10-08T20:11:49.358Z,5.90
2022-10-08T20:14:18.836Z,6.53
2022-10-08T20:16:46.699Z,5.90
2022-10-08T20:19:16.671Z,5.87
2022-10-08T20:21:44.729Z,5.43
2022-10-08T20:24:12.832Z,5.83
2022-10-08T20:26:41.685Z,5.23
2022-10-08T20:29:10.313Z,6.43
2022-10-08T20:31:40.643Z,11.10
2022-10-08T20:34:09.529Z,6.47
2022-10-08T20:36:37.555Z,5.90
2022-10-08T20:39:05.779Z,6.70
2022-10-08T20:41:33.917Z,6.50
2022-10-08T20:44:03.033Z,6.10
2022-10-08T20:46:32.595Z,5.50
2022-10-08T20:49:01.926Z,5.47
2022-10-08T20:51:30.475Z,5.53
2022-10-08T20:53:59.607Z,4.60
2022-10-08T20:56:27.812Z,4.33
2022-10-08T20:58:55.719Z,4.37
2022-10-08T21:01:24.613Z,4.53
2022-10-08T21:03:52.652Z,4.00
2022-10-08T21:06:23.117Z,4.13
2022-10-08T21:08:51.684Z,4.33
2022-10-08T21:11:20.777Z,4.47
2022-10-08T21:13:48.768Z,4.00
2022-10-08T21:16:17.999Z,4.73
2022-10-08T21:18:46.084Z,5.00
2022-10-08T21:21:14.892Z,6.10
2022-10-08T21:23:44.721Z,6.03
2022-10-08T21:26:14.603Z,6.10
2022-10-08T21:28:43.168Z,5.23
2022-10-08T21:31:11.537Z,5.40
2022-10-08T21:33:39.921Z,5.63
2022-10-08T21:36:09.042Z,4.83
2022-10-08T21:38:36.932Z,4.33
2022-10-08T21:41:12.120Z,4.87
2022-10-08T21:43:41.678Z,4.20
2022-10-08T21:46:16.112Z,4.10
2022-10-08T21:48:45.878Z,4.20
2022-10-08T21:51:14.970Z,4.03
2022-10-08T21:53:49.776Z,3.97
2022-10-08T21:56:19.988Z,4.00
2022-10-08T21:58:49.100Z,3.77
2022-10-08T22:01:22.052Z,3.23
2022-10-08T22:03:50.172Z,3.30
2022-10-08T22:06:18.094Z,4.10
2022-10-08T22:08:45.982Z,3.77
2022-10-08T22:11:13.840Z,3.60
2022-10-08T22:13:43.111Z,3.23
2022-10-08T22:16:12.103Z,3.20
2022-10-08T22:18:40.065Z,3.43
2022-10-08T22:21:09.660Z,3.30
2022-10-08T22:23:37.546Z,3.33
2022-10-08T22:26:06.568Z,3.90
2022-10-08T22:28:34.556Z,3.53
2022-10-08T22:31:04.587Z,3.27
2022-10-08T22:33:32.541Z,3.40
2022-10-08T22:36:03.449Z,3.50
2022-10-08T22:38:32.141Z,3.50
2022-10-08T22:41:03.679Z,3.23
2022-10-08T22:43:31.573Z,3.03
2022-10-08T22:46:04.040Z,3.30
2022-10-08T22:48:31.973Z,2.70
2022-10-08T22:51:02.477Z,2.80
2022-10-08T22:53:30.450Z,3.23
2022-10-08T22:55:58.305Z,3.37
2022-10-08T22:58:26.239Z,3.07
2022-10-08T23:01:00.877Z,3.13
2022-10-08T23:03:30.257Z,3.10
2022-10-08T23:06:02.566Z,3.00
2022-10-08T23:08:30.505Z,3.10
2022-10-08T23:10:58.412Z,2.67
2022-10-08T23:13:26.320Z,2.77
2022-10-08T23:16:00.137Z,3.00
2022-10-08T23:18:27.977Z,2.60
2022-10-08T23:20:57.278Z,2.67
2022-10-08T23:23:25.137Z,2.60
2022-10-08T23:25:56.793Z,2.20
2022-10-08T23:28:24.753Z,2.50
2022-10-08T23:30:52.658Z,2.73
2022-10-08T23:33:20.561Z,2.87
2022-10-08T23:35:54.876Z,2.80
2022-10-08T23:38:24.144Z,3.00
2022-10-08T23:40:52.055Z,2.60
2022-10-08T23:43:19.959Z,2.77
2022-10-08T23:45:47.902Z,2.50
2022-10-08T23:48:15.799Z,2.97
2022-10-08T23:50:43.691Z,2.77
2022-10-08T23:53:11.602Z,2.70
2022-10-08T23:55:40.868Z,2.40
2022-10-08T23:58:08.700Z,2.90
